Rhodanus — PGBC — position and weather

sailwx.info

Track history (hours):
 
Tides and Currents Weather Stations Pressure Air Temp Water Temp Dewpoint Dewpoint Depression Visibility Wind Speed Wind Dir Waves Ship Positions

Rhodanus

Last reported at 2015-Apr-23 21:23 UTC. Time now 2015-May-06 03:23 UTC.
Position N 37°26' W 000°45'.
Warning: this ship's position is 12 days out of date.

Length 89 m; draft 3.3 m.

Type: Cargo ship. MMSI: 245848000.

Date/timePositionNaut miles runAvg speedWind from/ knotsBaromVisibWave heightAir tempDewpointWater temp
2015-Apr-23 21:23N 37°26' W 000°45'11 9.6
2015-Apr-23 20:11N 37°34' W 000°34'6 9.6
2015-Apr-23 19:31N 37°39' W 000°29'167 9.3
2015-Apr-23 01:33N 39°54' E 001°37'9 9.2
2015-Apr-23 00:32N 40°02' E 001°45'10 9.5
2015-Apr-22 23:30N 40°09' E 001°53'9 9.5
2015-Apr-22 22:33N 40°16' E 002°00'10 9.9
2015-Apr-22 21:33N 40°24' E 002°09'1010.1
2015-Apr-22 20:33N 40°32' E 002°17'8510.1
2015-Apr-22 12:10N 41°39' E 003°26'810.1
2015-Apr-22 11:20N 41°45' E 003°33'1110.1
2015-Apr-22 10:13N 41°55' E 003°42'9 9.7
2015-Apr-22 09:20N 42°01' E 003°49'9 9.9
2015-Apr-22 08:23N 42°09' E 003°56'1010.1
2015-Apr-22 07:22N 42°17' E 004°05'1210.2
2015-Apr-22 06:13N 42°26' E 004°14'910.1
2015-Apr-22 05:20N 42°33' E 004°22'55 9.5
2015-Apr-21 23:33N 43°22' E 004°57'1 0.0
2015-Apr-19 20:32N 43°23' E 004°57'480 9.6
2015-Apr-17 18:21N 38°26' E 013°17'7 9.0
2015-Apr-17 17:33N 38°21' E 013°23'10 9.9
2015-Apr-17 16:33N 38°13' E 013°31'  
2015-Apr-15 00:19N 38°28' E 013°21'  
Track history (hours):
 
Tides and Currents Weather Stations Pressure Air Temp Water Temp Dewpoint Dewpoint Depression Visibility Wind Speed Wind Dir Waves Ship Positions

Rhodanus

Last reported at 2015-Apr-23 21:23 UTC. Time now 2015-May-06 03:23 UTC.
Position N 37°26' W 000°45'.
Warning: this ship's position is 12 days out of date.

Length 89 m; draft 3.3 m.

Type: Cargo ship. MMSI: 245848000.

Date/timePositionNaut miles runAvg speedWind from/ knotsBaromVisibWave heightAir tempDewpointWater temp
2015-Apr-23 21:23N 37°26' W 000°45'11 9.6
2015-Apr-23 20:11N 37°34' W 000°34'6 9.6
2015-Apr-23 19:31N 37°39' W 000°29'167 9.3
2015-Apr-23 01:33N 39°54' E 001°37'9 9.2
2015-Apr-23 00:32N 40°02' E 001°45'10 9.5
2015-Apr-22 23:30N 40°09' E 001°53'9 9.5
2015-Apr-22 22:33N 40°16' E 002°00'10 9.9
2015-Apr-22 21:33N 40°24' E 002°09'1010.1
2015-Apr-22 20:33N 40°32' E 002°17'8510.1
2015-Apr-22 12:10N 41°39' E 003°26'810.1
2015-Apr-22 11:20N 41°45' E 003°33'1110.1
2015-Apr-22 10:13N 41°55' E 003°42'9 9.7
2015-Apr-22 09:20N 42°01' E 003°49'9 9.9
2015-Apr-22 08:23N 42°09' E 003°56'1010.1
2015-Apr-22 07:22N 42°17' E 004°05'1210.2
2015-Apr-22 06:13N 42°26' E 004°14'910.1
2015-Apr-22 05:20N 42°33' E 004°22'55 9.5
2015-Apr-21 23:33N 43°22' E 004°57'1 0.0
2015-Apr-19 20:32N 43°23' E 004°57'480 9.6
2015-Apr-17 18:21N 38°26' E 013°17'7 9.0
2015-Apr-17 17:33N 38°21' E 013°23'10 9.9
2015-Apr-17 16:33N 38°13' E 013°31'  
2015-Apr-15 00:19N 38°28' E 013°21'  

Dump ship's entire track history